createdAt,value
2022-10-08T00:00:01.659Z,4
2022-10-08T00:05:01.997Z,2
2022-10-08T00:10:01.517Z,1
2022-10-08T00:15:02.005Z,2
2022-10-08T00:20:01.464Z,1
2022-10-08T00:25:01.947Z,2
2022-10-08T00:30:02.323Z,4
2022-10-08T00:35:01.659Z,2
2022-10-08T00:40:02.064Z,6
2022-10-08T00:45:01.544Z,1
2022-10-08T00:50:02.007Z,1
2022-10-08T00:55:01.478Z,1
2022-10-08T01:00:01.958Z,1
2022-10-08T01:05:01.303Z,1
2022-10-08T01:10:01.718Z,2
2022-10-08T01:15:02.095Z,1
2022-10-08T01:20:01.547Z,1
2022-10-08T01:25:02.019Z,2
2022-10-08T01:30:01.498Z,2
2022-10-08T01:35:01.968Z,1
2022-10-08T01:40:01.350Z,2
2022-10-08T01:45:01.726Z,0
2022-10-08T01:50:02.090Z,1
2022-10-08T01:55:01.437Z,1
2022-10-08T02:00:01.906Z,3
2022-10-08T02:05:02.370Z,1
2022-10-08T02:10:01.747Z,4
2022-10-08T02:15:02.231Z,4
2022-10-08T02:20:01.671Z,1
2022-10-08T02:25:02.133Z,1
2022-10-08T02:30:01.524Z,2
2022-10-08T02:35:01.856Z,1
2022-10-08T02:40:02.245Z,1
2022-10-08T02:45:01.649Z,1
2022-10-08T02:50:01.997Z,1
2022-10-08T02:55:01.465Z,1
2022-10-08T03:00:01.949Z,2
2022-10-08T03:05:02.304Z,1
2022-10-08T03:10:01.694Z,1
2022-10-08T03:15:02.068Z,2
2022-10-08T03:20:01.616Z,3
2022-10-08T03:25:01.967Z,0
2022-10-08T03:30:01.348Z,1
2022-10-08T03:35:01.814Z,2
2022-10-08T03:40:02.191Z,2
2022-10-08T03:45:01.664Z,2
2022-10-08T03:50:02.030Z,2
2022-10-08T03:55:01.400Z,5
2022-10-08T04:00:01.752Z,1
2022-10-08T04:05:02.213Z,2
2022-10-08T04:10:01.597Z,3
2022-10-08T04:15:01.979Z,1
2022-10-08T04:20:01.451Z,1
2022-10-08T04:25:01.833Z,1
2022-10-08T04:30:02.050Z,7
2022-10-08T04:35:01.392Z,3
2022-10-08T04:40:01.797Z,2
2022-10-08T04:45:02.158Z,1
2022-10-08T04:50:01.511Z,2
2022-10-08T04:55:01.842Z,4
2022-10-08T05:00:18.785Z,0
2022-10-08T05:05:02.103Z,0
2022-10-08T05:10:01.617Z,1
2022-10-08T05:15:01.991Z,0
2022-10-08T05:20:01.443Z,0
2022-10-08T05:25:01.791Z,1
2022-10-08T05:30:02.262Z,1
2022-10-08T05:35:01.740Z,0
2022-10-08T05:40:02.112Z,0
2022-10-08T05:45:01.482Z,0
2022-10-08T05:50:01.955Z,3
2022-10-08T05:55:01.293Z,3
2022-10-08T06:00:01.768Z,1
2022-10-08T06:05:02.339Z,0
2022-10-08T06:10:01.898Z,1
2022-10-08T06:15:02.372Z,0
2022-10-08T06:20:01.913Z,1
2022-10-08T06:25:02.375Z,1
2022-10-08T06:30:01.768Z,0
2022-10-08T06:35:02.229Z,1
2022-10-08T06:40:01.623Z,0
2022-10-08T06:45:02.563Z,0
2022-10-08T06:50:02.041Z,1
2022-10-08T06:55:01.383Z,1
2022-10-08T07:00:01.769Z,1
2022-10-08T07:05:02.242Z,0
2022-10-08T07:10:01.650Z,0
2022-10-08T07:15:02.015Z,1
2022-10-08T07:20:01.563Z,1
2022-10-08T07:25:02.025Z,5
2022-10-08T07:30:01.501Z,3
2022-10-08T07:35:01.965Z,0
2022-10-08T07:40:01.463Z,1
2022-10-08T07:45:01.938Z,2
2022-10-08T07:50:02.412Z,0
2022-10-08T07:55:01.887Z,3
2022-10-08T08:00:02.253Z,0
2022-10-08T08:05:01.716Z,5
2022-10-08T08:10:02.221Z,1
2022-10-08T08:15:01.572Z,5
2022-10-08T08:20:02.125Z,100
2022-10-08T08:25:01.588Z,14
2022-10-08T08:30:02.006Z,85
2022-10-08T08:35:01.469Z,13
2022-10-08T08:40:01.958Z,7
2022-10-08T08:45:01.352Z,11
2022-10-08T08:50:01.816Z,17
2022-10-08T08:55:02.272Z,34
2022-10-08T09:00:01.767Z,29
2022-10-08T09:05:02.144Z,50
2022-10-08T09:10:01.676Z,46
2022-10-08T09:15:02.154Z,27
2022-10-08T09:20:01.575Z,25
2022-10-08T09:25:02.051Z,48
2022-10-08T09:30:01.527Z,23
2022-10-08T09:35:01.995Z,25
2022-10-08T09:40:01.516Z,17
2022-10-08T09:45:01.893Z,25
2022-10-08T09:50:02.242Z,30
2022-10-08T09:55:01.600Z,22
2022-10-08T10:00:02.098Z,26
2022-10-08T10:05:01.573Z,28
2022-10-08T10:10:02.102Z,27
2022-10-08T10:15:01.626Z,22
2022-10-08T10:20:02.392Z,23
2022-10-08T10:25:01.862Z,31
2022-10-08T10:30:02.354Z,24
2022-10-08T10:35:01.837Z,24
2022-10-08T10:40:02.251Z,24
2022-10-08T10:45:01.735Z,23
2022-10-08T10:50:02.080Z,37
2022-10-08T10:55:01.551Z,42
2022-10-08T11:00:01.933Z,48
2022-10-08T11:05:02.457Z,47
2022-10-08T11:10:01.994Z,80
2022-10-08T11:15:01.393Z,73
2022-10-08T11:20:01.806Z,72
2022-10-08T11:25:02.163Z,92
2022-10-08T11:30:03.147Z,79
2022-10-08T11:35:01.623Z,89
2022-10-08T11:40:02.028Z,79
2022-10-08T11:45:01.504Z,105
2022-10-08T11:50:01.852Z,80
2022-10-08T11:55:02.319Z,28
2022-10-08T12:00:07.747Z,89
2022-10-08T12:05:01.521Z,94
2022-10-08T12:10:02.052Z,100
2022-10-08T12:15:01.553Z,101
2022-10-08T12:20:01.976Z,90
2022-10-08T12:25:01.360Z,85
2022-10-08T12:30:01.742Z,85
2022-10-08T12:35:02.115Z,105
2022-10-08T12:40:01.634Z,58
2022-10-08T12:45:02.111Z,46
2022-10-08T12:50:01.452Z,42
2022-10-08T12:55:01.928Z,36
2022-10-08T13:00:02.425Z,32
2022-10-08T13:05:01.895Z,33
2022-10-08T13:10:02.402Z,34
2022-10-08T13:15:01.878Z,30
2022-10-08T13:20:01.413Z,28
2022-10-08T13:25:01.889Z,28
2022-10-08T13:30:02.358Z,33
2022-10-08T13:35:01.825Z,31
2022-10-08T13:40:02.349Z,25
2022-10-08T13:45:01.821Z,28
2022-10-08T13:50:02.406Z,28
2022-10-08T13:55:01.922Z,27
2022-10-08T14:00:02.423Z,32
2022-10-08T14:05:01.751Z,25
2022-10-08T14:10:02.257Z,24
2022-10-08T14:15:01.687Z,30
2022-10-08T14:20:02.224Z,40
2022-10-08T14:25:01.643Z,42
2022-10-08T14:30:02.121Z,49
2022-10-08T14:35:01.610Z,61
2022-10-08T14:40:02.109Z,2
2022-10-08T14:45:01.583Z,1
2022-10-08T14:50:02.046Z,1
2022-10-08T14:55:01.379Z,1
2022-10-08T15:00:01.862Z,0
2022-10-08T15:05:02.203Z,2
2022-10-08T15:10:01.715Z,1
2022-10-08T15:15:02.073Z,1
2022-10-08T15:20:01.507Z,1
2022-10-08T15:25:01.978Z,1
2022-10-08T15:30:01.451Z,1
2022-10-08T15:35:01.805Z,2
2022-10-08T15:40:02.306Z,1
2022-10-08T15:45:01.783Z,2
2022-10-08T15:50:02.243Z,2
2022-10-08T15:55:01.584Z,1
2022-10-08T16:00:02.114Z,0
2022-10-08T16:05:01.517Z,1
2022-10-08T16:10:02.107Z,2
2022-10-08T16:15:01.475Z,1
2022-10-08T16:20:02.191Z,2
2022-10-08T16:25:01.717Z,1
2022-10-08T16:30:02.404Z,2
2022-10-08T16:35:01.902Z,1
2022-10-08T16:40:02.392Z,2
2022-10-08T16:45:01.779Z,1
2022-10-08T16:50:02.110Z,0
2022-10-08T16:55:01.587Z,1
2022-10-08T17:00:02.079Z,1
2022-10-08T17:05:01.552Z,2
2022-10-08T17:10:02.065Z,1
2022-10-08T17:15:01.612Z,1
2022-10-08T17:20:02.160Z,1
2022-10-08T17:25:01.518Z,2
2022-10-08T17:30:02.022Z,0
2022-10-08T17:35:01.391Z,4
2022-10-08T17:40:01.785Z,1
2022-10-08T17:45:02.270Z,0
2022-10-08T17:50:01.630Z,1
2022-10-08T17:55:01.998Z,1
2022-10-08T18:00:01.479Z,0
2022-10-08T18:05:01.968Z,3
2022-10-08T18:10:01.353Z,2
2022-10-08T18:15:01.854Z,3
2022-10-08T18:20:02.393Z,1
2022-10-08T18:25:01.868Z,2
2022-10-08T18:30:02.346Z,1
2022-10-08T18:35:01.683Z,2
2022-10-08T18:40:02.182Z,2
2022-10-08T18:45:01.666Z,1
2022-10-08T18:50:02.018Z,1
2022-10-08T18:55:01.357Z,1
2022-10-08T19:00:01.708Z,2
2022-10-08T19:05:02.066Z,2
2022-10-08T19:10:01.444Z,2
2022-10-08T19:15:01.913Z,3
2022-10-08T19:20:01.487Z,3
2022-10-08T19:25:01.842Z,4
2022-10-08T19:30:02.461Z,3
2022-10-08T19:35:01.943Z,2
2022-10-08T19:40:01.405Z,3
2022-10-08T19:45:01.900Z,4
2022-10-08T19:50:02.366Z,3
2022-10-08T19:55:01.717Z,3
2022-10-08T20:00:02.205Z,4
2022-10-08T20:05:01.693Z,3
2022-10-08T20:10:02.064Z,10
2022-10-08T20:15:01.418Z,6
2022-10-08T20:20:20.997Z,5
2022-10-08T20:25:01.837Z,4
2022-10-08T20:30:02.195Z,5
2022-10-08T20:35:01.688Z,10
2022-10-08T20:40:02.202Z,6
2022-10-08T20:45:01.562Z,4
2022-10-08T20:50:01.903Z,4
2022-10-08T20:55:02.372Z,5
2022-10-08T21:00:01.884Z,4
2022-10-08T21:05:02.082Z,9
2022-10-08T21:10:01.586Z,6
2022-10-08T21:15:01.954Z,3
2022-10-08T21:20:01.814Z,4
2022-10-08T21:25:02.150Z,6
2022-10-08T21:30:01.508Z,5
2022-10-08T21:35:01.839Z,5
2022-10-08T21:40:02.348Z,4
2022-10-08T21:45:01.691Z,4
2022-10-08T21:50:02.019Z,4
2022-10-08T21:55:01.564Z,5
2022-10-08T22:00:02.117Z,4
2022-10-08T22:05:01.518Z,26
2022-10-08T22:10:01.894Z,5
2022-10-08T22:15:02.296Z,5
2022-10-08T22:20:02.246Z,5
2022-10-08T22:25:01.751Z,5
2022-10-08T22:30:02.250Z,4
2022-10-08T22:35:01.609Z,4
2022-10-08T22:40:02.118Z,10
2022-10-08T22:45:01.592Z,5
2022-10-08T22:50:02.066Z,5
2022-10-08T22:55:01.560Z,4
2022-10-08T23:00:01.967Z,4
2022-10-08T23:05:01.325Z,5
2022-10-08T23:10:01.723Z,4
2022-10-08T23:15:02.100Z,5
2022-10-08T23:20:01.516Z,5
2022-10-08T23:25:01.850Z,6
2022-10-08T23:30:02.334Z,5
2022-10-08T23:35:01.695Z,4
2022-10-08T23:40:02.071Z,5
2022-10-08T23:45:01.437Z,5
2022-10-08T23:50:01.776Z,5
2022-10-08T23:55:02.108Z,8
